createdAt,value
2018-10-07T00:02:16.621Z,70.60
2018-10-07T00:04:44.802Z,70.90
2018-10-07T00:07:12.955Z,71.00
2018-10-07T00:09:41.190Z,71.30
2018-10-07T00:12:10.777Z,71.70
2018-10-07T00:14:39.015Z,71.80
2018-10-07T00:17:07.226Z,72.10
2018-10-07T00:19:35.462Z,72.40
2018-10-07T00:22:03.636Z,72.80
2018-10-07T00:24:31.872Z,73.10
2018-10-07T00:27:00.053Z,73.50
2018-10-07T00:29:28.371Z,73.60
2018-10-07T00:32:02.068Z,74.00
2018-10-07T00:34:30.306Z,74.40
2018-10-07T00:36:58.462Z,74.60
2018-10-07T00:39:27.206Z,74.70
2018-10-07T00:41:55.408Z,74.80
2018-10-07T00:44:23.648Z,74.90
2018-10-07T00:46:51.846Z,75.10
2018-10-07T00:49:20.124Z,75.60
2018-10-07T00:51:48.355Z,75.00
2018-10-07T00:54:16.675Z,74.80
2018-10-07T00:56:44.928Z,74.80
2018-10-07T00:59:13.068Z,74.70
2018-10-07T01:01:41.322Z,74.80
2018-10-07T01:04:09.517Z,74.90
2018-10-07T01:06:37.672Z,75.00
2018-10-07T01:09:08.077Z,74.90
2018-10-07T01:11:36.423Z,74.90
2018-10-07T01:14:05.571Z,75.20
2018-10-07T01:16:33.802Z,75.80
2018-10-07T01:19:02.209Z,75.70
2018-10-07T01:21:30.457Z,75.90
2018-10-07T01:23:58.737Z,75.90
2018-10-07T01:26:27.021Z,76.10
2018-10-07T01:28:55.247Z,76.40
2018-10-07T01:31:23.459Z,76.50
2018-10-07T01:33:51.696Z,76.60
2018-10-07T01:36:20.381Z,76.80
2018-10-07T01:38:48.591Z,76.90
2018-10-07T01:41:17.467Z,77.10
2018-10-07T01:43:45.956Z,77.20
2018-10-07T01:46:14.541Z,77.60
2018-10-07T01:48:42.777Z,77.90
2018-10-07T01:51:11.094Z,78.00
2018-10-07T01:53:39.276Z,78.30
2018-10-07T01:56:07.639Z,78.60
2018-10-07T01:58:36.081Z,78.90
2018-10-07T02:01:04.395Z,79.40
2018-10-07T02:03:32.577Z,79.90
2018-10-07T02:06:00.755Z,80.20
2018-10-07T02:08:28.921Z,79.90
2018-10-07T02:10:57.327Z,80.40
2018-10-07T02:13:25.507Z,80.50
2018-10-07T02:15:53.713Z,80.80
2018-10-07T02:18:21.904Z,80.60
2018-10-07T02:20:50.094Z,80.70
2018-10-07T02:23:18.377Z,81.10
2018-10-07T02:25:46.623Z,81.20
2018-10-07T02:28:15.091Z,81.50
2018-10-07T02:30:43.307Z,81.50
2018-10-07T02:33:11.484Z,81.40
2018-10-07T02:35:39.674Z,81.60
2018-10-07T02:38:07.870Z,81.30
2018-10-07T02:40:36.070Z,81.20
2018-10-07T02:43:04.391Z,81.20
2018-10-07T02:45:32.618Z,81.40
2018-10-07T02:48:00.845Z,81.70
2018-10-07T02:50:29.206Z,81.70
2018-10-07T02:52:57.654Z,81.90
2018-10-07T02:55:27.680Z,82.20
2018-10-07T02:57:57.024Z,82.50
2018-10-07T03:00:25.368Z,82.60
2018-10-07T03:02:53.694Z,82.80
2018-10-07T03:05:21.869Z,83.30
2018-10-07T03:07:50.099Z,83.50
2018-10-07T03:10:18.987Z,83.70
2018-10-07T03:12:47.196Z,83.90
2018-10-07T03:15:15.432Z,83.90
2018-10-07T03:17:43.732Z,84.10
2018-10-07T03:20:11.962Z,84.50
2018-10-07T03:22:40.302Z,84.70
2018-10-07T03:25:08.476Z,85.10
2018-10-07T03:27:36.840Z,85.20
2018-10-07T03:30:04.996Z,85.50
2018-10-07T03:32:33.238Z,85.90
2018-10-07T03:35:01.443Z,86.20
2018-10-07T03:37:29.650Z,87.50
2018-10-07T03:39:57.921Z,87.00
2018-10-07T03:42:26.108Z,87.20
2018-10-07T03:44:54.453Z,87.70
2018-10-07T03:47:22.632Z,88.20
2018-10-07T03:49:51.012Z,87.90
2018-10-07T03:52:19.237Z,88.10
2018-10-07T03:54:47.387Z,88.40
2018-10-07T03:57:15.823Z,88.50
2018-10-07T03:59:43.985Z,88.60
2018-10-07T04:02:12.147Z,88.70
2018-10-07T04:04:40.480Z,88.60
2018-10-07T04:07:08.905Z,89.20
2018-10-07T04:09:37.096Z,89.50
2018-10-07T04:12:05.275Z,88.80
2018-10-07T04:14:33.529Z,88.20
2018-10-07T04:17:01.701Z,88.10
2018-10-07T04:19:29.875Z,88.10
2018-10-07T04:21:58.942Z,88.20
2018-10-07T04:24:29.220Z,88.60
2018-10-07T04:26:57.555Z,88.40
2018-10-07T04:29:26.413Z,87.70
2018-10-07T04:31:54.589Z,87.60
2018-10-07T04:34:22.810Z,87.80
2018-10-07T04:36:51.084Z,87.30
2018-10-07T04:39:19.308Z,87.00
2018-10-07T04:41:47.538Z,87.10
2018-10-07T04:44:15.727Z,86.80
2018-10-07T04:46:44.544Z,86.70
2018-10-07T04:49:12.830Z,86.50
2018-10-07T04:51:41.106Z,86.90
2018-10-07T04:54:09.368Z,87.20
2018-10-07T04:56:37.612Z,87.10
2018-10-07T04:59:05.931Z,86.90
2018-10-07T05:01:34.166Z,86.50
2018-10-07T05:04:02.352Z,86.30
2018-10-07T05:06:32.538Z,86.20
2018-10-07T05:09:04.806Z,85.80
2018-10-07T05:11:33.041Z,85.50
2018-10-07T05:14:01.436Z,85.30
2018-10-07T05:16:35.243Z,85.30
2018-10-07T05:19:03.481Z,85.20
2018-10-07T05:21:31.715Z,85.30
2018-10-07T05:23:59.985Z,85.50
2018-10-07T05:26:29.050Z,85.60
2018-10-07T05:28:58.073Z,86.00
2018-10-07T05:31:26.343Z,86.00
2018-10-07T05:33:54.969Z,86.10
2018-10-07T05:36:23.345Z,86.20
2018-10-07T05:38:51.533Z,86.50
2018-10-07T05:41:19.901Z,86.60
2018-10-07T05:43:48.119Z,86.70
2018-10-07T05:46:16.326Z,86.90
2018-10-07T05:48:44.538Z,87.10
2018-10-07T05:51:12.710Z,87.40
2018-10-07T05:53:40.996Z,87.30
2018-10-07T05:56:09.222Z,87.50
2018-10-07T05:58:38.155Z,88.30
2018-10-07T06:01:10.638Z,87.50
2018-10-07T06:04:02.764Z,87.20
2018-10-07T06:06:30.974Z,87.00
2018-10-07T06:08:59.384Z,86.80
2018-10-07T06:11:27.952Z,86.70
2018-10-07T06:13:56.205Z,86.70
2018-10-07T06:16:24.385Z,86.60
2018-10-07T06:18:52.763Z,86.70
2018-10-07T06:21:20.992Z,86.70
2018-10-07T06:23:49.291Z,87.00
2018-10-07T06:26:17.653Z,86.90
2018-10-07T06:28:45.834Z,87.10
2018-10-07T06:31:14.003Z,87.30
2018-10-07T06:33:42.282Z,87.30
2018-10-07T06:36:10.463Z,87.30
2018-10-07T06:38:38.728Z,87.40
2018-10-07T06:41:06.915Z,87.70
2018-10-07T06:43:41.426Z,87.70
2018-10-07T06:46:09.631Z,88.30
2018-10-07T06:48:37.908Z,88.00
2018-10-07T06:51:06.443Z,88.30
2018-10-07T06:53:34.973Z,88.10
2018-10-07T06:56:03.243Z,88.30
2018-10-07T06:58:31.421Z,88.30
2018-10-07T07:00:59.693Z,87.50
2018-10-07T07:03:27.847Z,87.00
2018-10-07T07:05:56.131Z,86.90
2018-10-07T07:08:24.397Z,86.80
2018-10-07T07:10:52.647Z,86.50
2018-10-07T07:13:20.887Z,86.00
2018-10-07T07:15:49.163Z,85.40
2018-10-07T07:18:17.342Z,85.40
2018-10-07T07:20:45.612Z,85.50
2018-10-07T07:23:13.946Z,85.40
2018-10-07T07:25:42.256Z,85.70
2018-10-07T07:28:10.506Z,86.10
2018-10-07T07:30:38.754Z,85.20
2018-10-07T07:33:07.019Z,86.10
2018-10-07T07:35:35.207Z,86.00
2018-10-07T07:38:03.463Z,86.20
2018-10-07T07:40:31.790Z,86.30
2018-10-07T07:43:00.111Z,86.50
2018-10-07T07:45:28.549Z,87.10
2018-10-07T07:47:56.800Z,86.90
2018-10-07T07:50:31.845Z,87.20
2018-10-07T07:53:00.136Z,87.40
2018-10-07T07:55:28.429Z,88.50
2018-10-07T07:57:56.935Z,89.80
2018-10-07T08:00:25.220Z,89.90
2018-10-07T08:02:53.388Z,90.10
2018-10-07T08:05:21.738Z,90.00
2018-10-07T08:07:50.153Z,89.60
2018-10-07T08:10:18.412Z,89.60
2018-10-07T08:12:46.589Z,89.80
2018-10-07T08:15:14.866Z,89.60
2018-10-07T08:17:43.111Z,89.10
2018-10-07T08:20:11.333Z,88.90
2018-10-07T08:22:39.636Z,88.80
2018-10-07T08:25:07.824Z,88.50
2018-10-07T08:27:36.048Z,88.80
2018-10-07T08:30:04.444Z,86.40
2018-10-07T08:32:32.716Z,84.50
2018-10-07T08:35:01.064Z,83.10
2018-10-07T08:37:29.316Z,80.40
2018-10-07T08:39:57.590Z,79.20
2018-10-07T08:42:25.812Z,78.00
2018-10-07T08:44:54.104Z,79.00
2018-10-07T08:47:23.168Z,77.80
2018-10-07T08:49:52.366Z,77.00
2018-10-07T08:52:20.924Z,76.30
2018-10-07T08:54:49.648Z,74.70
2018-10-07T08:57:17.899Z,74.30
2018-10-07T08:59:46.358Z,73.50
2018-10-07T09:02:14.741Z,73.90
2018-10-07T09:04:43.076Z,75.10
2018-10-07T09:07:11.717Z,73.50
2018-10-07T09:09:40.043Z,72.90
2018-10-07T09:12:08.369Z,73.00
2018-10-07T09:14:36.765Z,72.30
2018-10-07T09:17:05.890Z,71.70
2018-10-07T09:19:34.126Z,71.70
2018-10-07T09:22:02.501Z,70.50
2018-10-07T09:24:30.741Z,69.60
2018-10-07T09:26:59.098Z,69.80
2018-10-07T09:29:27.333Z,69.70
2018-10-07T09:31:55.537Z,69.00
2018-10-07T09:34:23.845Z,69.40
2018-10-07T09:36:52.322Z,69.60
2018-10-07T09:39:20.593Z,71.40
2018-10-07T09:41:48.780Z,70.90
2018-10-07T09:44:17.570Z,70.50
2018-10-07T09:46:45.886Z,70.40
2018-10-07T09:49:14.047Z,70.30
2018-10-07T09:51:42.223Z,70.80
2018-10-07T09:54:11.120Z,70.60
2018-10-07T09:56:39.371Z,70.30
2018-10-07T09:59:07.545Z,69.30
2018-10-07T10:01:35.749Z,69.30
2018-10-07T10:04:04.058Z,68.50
2018-10-07T10:06:32.351Z,67.80
2018-10-07T10:09:00.577Z,68.40
2018-10-07T10:11:28.856Z,68.50
2018-10-07T10:13:57.081Z,68.40
2018-10-07T10:17:29.281Z,69.20
2018-10-07T10:20:09.739Z,69.70
2018-10-07T10:22:58.703Z,69.60
2018-10-07T10:25:39.851Z,69.40
2018-10-07T10:28:18.850Z,70.10
2018-10-07T10:30:51.423Z,70.50
2018-10-07T10:33:23.556Z,70.40
2018-10-07T10:35:57.854Z,71.80
2018-10-07T10:38:40.253Z,72.10
2018-10-07T10:41:20.256Z,72.30
2018-10-07T10:43:57.182Z,72.60
2018-10-07T10:46:32.260Z,72.20
2018-10-07T10:49:26.678Z,72.40
2018-10-07T10:52:00.752Z,72.70
2018-10-07T10:54:35.383Z,72.20
2018-10-07T10:57:10.717Z,72.20
2018-10-07T10:59:56.951Z,71.50
2018-10-07T11:03:37.191Z,70.40
2018-10-07T11:06:12.201Z,69.60
2018-10-07T11:09:25.855Z,68.50
2018-10-07T11:11:57.929Z,68.40
2018-10-07T11:14:36.467Z,66.80
2018-10-07T11:17:12.627Z,66.60
2018-10-07T11:19:50.583Z,65.90
2018-10-07T11:22:32.025Z,65.70
2018-10-07T11:25:12.479Z,64.80
2018-10-07T11:27:45.395Z,64.60
2018-10-07T11:31:04.471Z,64.40
2018-10-07T11:35:11.381Z,63.50
2018-10-07T11:37:47.396Z,64.30
2018-10-07T11:40:23.117Z,64.00
2018-10-07T11:43:01.939Z,63.70
2018-10-07T11:45:33.330Z,63.70
2018-10-07T11:48:14.800Z,62.90
2018-10-07T11:51:06.783Z,62.00
2018-10-07T11:53:38.286Z,61.70
2018-10-07T11:56:06.482Z,61.80
2018-10-07T11:58:34.770Z,60.40
2018-10-07T12:01:03.094Z,60.60
2018-10-07T12:03:31.292Z,60.30
2018-10-07T12:05:59.464Z,60.10
2018-10-07T12:08:27.692Z,60.90
2018-10-07T12:10:55.870Z,60.60
2018-10-07T12:13:24.633Z,60.00
2018-10-07T12:15:52.788Z,60.00
2018-10-07T12:18:21.002Z,61.20
2018-10-07T12:20:49.835Z,62.20
2018-10-07T12:23:17.976Z,63.20
2018-10-07T12:25:46.318Z,61.60
2018-10-07T12:28:14.596Z,61.20
2018-10-07T12:30:42.805Z,61.30
2018-10-07T12:33:11.112Z,60.10
2018-10-07T12:35:39.419Z,59.50
2018-10-07T12:38:07.580Z,58.80
2018-10-07T12:40:35.914Z,57.80
2018-10-07T12:43:04.122Z,57.50
2018-10-07T12:45:32.290Z,57.70
2018-10-07T12:48:00.534Z,58.50
2018-10-07T12:50:28.766Z,58.10
2018-10-07T12:52:57.940Z,58.10
2018-10-07T12:55:26.136Z,58.30
2018-10-07T12:57:54.381Z,58.10
2018-10-07T13:00:22.777Z,58.10
2018-10-07T13:02:50.952Z,58.40
2018-10-07T13:05:19.218Z,58.50
2018-10-07T13:07:47.445Z,58.60
2018-10-07T13:10:15.654Z,58.30
2018-10-07T13:12:43.868Z,58.10
2018-10-07T13:15:12.143Z,56.80
2018-10-07T13:17:40.490Z,54.90
2018-10-07T13:20:08.656Z,55.10
2018-10-07T13:22:36.911Z,54.60
2018-10-07T13:25:05.351Z,54.80
2018-10-07T13:27:33.473Z,54.30
2018-10-07T13:30:01.709Z,54.10
2018-10-07T13:32:29.910Z,54.50
2018-10-07T13:34:58.146Z,53.50
2018-10-07T13:37:26.387Z,53.50
2018-10-07T13:39:54.655Z,53.70
2018-10-07T13:42:22.949Z,52.70
2018-10-07T13:44:51.156Z,52.50
2018-10-07T13:47:19.456Z,53.40
2018-10-07T13:49:47.607Z,52.30
2018-10-07T13:52:15.798Z,51.10
2018-10-07T13:54:43.973Z,50.80
2018-10-07T13:57:12.201Z,52.00
2018-10-07T13:59:40.408Z,51.10
2018-10-07T14:02:08.679Z,51.90
2018-10-07T14:04:36.917Z,51.30
2018-10-07T14:07:05.279Z,51.70
2018-10-07T14:09:33.646Z,51.30
2018-10-07T14:12:01.824Z,51.80
2018-10-07T14:14:30.644Z,51.90
2018-10-07T14:16:58.995Z,52.00
2018-10-07T14:19:27.241Z,52.30
2018-10-07T14:21:56.125Z,51.80
2018-10-07T14:24:24.301Z,51.50
2018-10-07T14:26:52.535Z,51.30
2018-10-07T14:29:20.685Z,50.80
2018-10-07T14:31:48.932Z,51.20
2018-10-07T14:34:17.119Z,51.10
2018-10-07T14:36:45.371Z,51.20
2018-10-07T14:39:13.994Z,51.20
2018-10-07T14:41:42.203Z,51.40
2018-10-07T14:44:10.451Z,51.80
2018-10-07T14:46:38.633Z,52.20
2018-10-07T14:49:07.000Z,52.40
2018-10-07T14:51:35.253Z,52.80
2018-10-07T14:54:04.250Z,52.00
2018-10-07T14:56:32.444Z,51.80
2018-10-07T14:59:00.646Z,52.30
2018-10-07T15:01:28.912Z,52.90
2018-10-07T15:03:57.200Z,53.00
2018-10-07T15:06:25.495Z,53.40
2018-10-07T15:08:53.728Z,54.00
2018-10-07T15:11:21.958Z,53.90
2018-10-07T15:13:50.177Z,53.40
2018-10-07T15:16:18.393Z,53.60
2018-10-07T15:18:46.611Z,53.60
2018-10-07T15:21:14.878Z,53.90
2018-10-07T15:23:43.199Z,54.60
2018-10-07T15:26:11.402Z,54.90
2018-10-07T15:28:39.607Z,54.80
2018-10-07T15:31:08.958Z,55.20
2018-10-07T15:33:37.171Z,55.70
2018-10-07T15:36:05.450Z,55.10
2018-10-07T15:38:33.767Z,55.60
2018-10-07T15:41:02.042Z,55.60
2018-10-07T15:43:30.962Z,55.50
2018-10-07T15:45:59.274Z,54.90
2018-10-07T15:48:27.554Z,54.90
2018-10-07T15:50:55.774Z,54.70
2018-10-07T15:53:24.016Z,54.60
2018-10-07T15:55:52.295Z,54.30
2018-10-07T15:58:20.528Z,54.90
2018-10-07T16:00:48.794Z,55.20
2018-10-07T16:03:17.052Z,55.20
2018-10-07T16:05:45.254Z,55.50
2018-10-07T16:08:13.543Z,55.90
2018-10-07T16:10:41.819Z,56.60
2018-10-07T16:13:10.100Z,56.80
2018-10-07T16:15:38.276Z,57.30
2018-10-07T16:18:06.612Z,57.40
2018-10-07T16:20:34.824Z,57.30
2018-10-07T16:23:03.092Z,57.20
2018-10-07T16:25:31.434Z,56.80
2018-10-07T16:27:59.744Z,56.50
2018-10-07T16:30:28.650Z,57.10
2018-10-07T16:32:56.882Z,57.20
2018-10-07T16:35:25.144Z,57.00
2018-10-07T16:37:53.392Z,56.60
2018-10-07T16:40:21.596Z,56.90
2018-10-07T16:42:49.902Z,56.90
2018-10-07T16:45:18.316Z,56.60
2018-10-07T16:47:46.706Z,56.30
2018-10-07T16:50:15.052Z,56.10
2018-10-07T16:52:43.270Z,56.00
2018-10-07T16:55:11.576Z,56.90
2018-10-07T16:57:40.048Z,56.70
2018-10-07T17:00:08.405Z,55.80
2018-10-07T17:02:36.795Z,55.90
2018-10-07T17:05:05.101Z,56.60
2018-10-07T17:07:33.553Z,56.90
2018-10-07T17:10:01.944Z,56.50
2018-10-07T17:12:30.256Z,56.00
2018-10-07T17:14:59.008Z,56.60
2018-10-07T17:17:27.274Z,56.60
2018-10-07T17:19:55.593Z,57.00
2018-10-07T17:22:23.938Z,57.00
2018-10-07T17:24:52.412Z,57.00
2018-10-07T17:27:21.606Z,57.30
2018-10-07T17:29:49.969Z,57.50
2018-10-07T17:32:18.257Z,57.30
2018-10-07T17:34:46.575Z,57.40
2018-10-07T17:37:14.862Z,57.30
2018-10-07T17:39:43.093Z,57.70
2018-10-07T17:42:11.538Z,58.10
2018-10-07T17:44:39.867Z,57.70
2018-10-07T17:47:08.441Z,57.80
2018-10-07T17:49:36.996Z,58.00
2018-10-07T17:52:05.491Z,58.00
2018-10-07T17:54:33.907Z,57.90
2018-10-07T17:57:02.250Z,58.20
2018-10-07T17:59:30.621Z,58.50
2018-10-07T18:01:58.915Z,57.90
2018-10-07T18:04:27.419Z,58.40
2018-10-07T18:06:56.055Z,58.70
2018-10-07T18:09:24.461Z,58.70
2018-10-07T18:11:52.743Z,58.60
2018-10-07T18:14:21.015Z,58.80
2018-10-07T18:16:49.288Z,59.00
2018-10-07T18:19:17.651Z,59.00
2018-10-07T18:21:45.982Z,59.10
2018-10-07T18:24:14.293Z,60.60
2018-10-07T18:26:42.595Z,61.10
2018-10-07T18:29:11.003Z,61.10
2018-10-07T18:31:39.387Z,61.40
2018-10-07T18:34:07.743Z,61.70
2018-10-07T18:36:36.457Z,62.20
2018-10-07T18:39:07.348Z,62.80
2018-10-07T18:41:36.297Z,63.00
2018-10-07T18:44:04.591Z,63.70
2018-10-07T18:46:33.019Z,63.90
2018-10-07T18:49:01.435Z,63.80
2018-10-07T18:51:30.443Z,64.00
2018-10-07T18:53:58.987Z,63.80
2018-10-07T18:56:27.284Z,63.90
2018-10-07T18:58:55.537Z,64.10
2018-10-07T19:01:23.977Z,64.40
2018-10-07T19:03:52.466Z,64.70
2018-10-07T19:06:20.850Z,64.70
2018-10-07T19:08:49.113Z,65.10
2018-10-07T19:11:17.396Z,65.30
2018-10-07T19:13:45.784Z,65.50
2018-10-07T19:16:14.265Z,65.90
2018-10-07T19:18:43.180Z,66.00
2018-10-07T19:21:11.737Z,65.80
2018-10-07T19:23:40.403Z,66.20
2018-10-07T19:26:08.961Z,66.70
2018-10-07T19:28:37.221Z,67.10
2018-10-07T19:31:05.890Z,67.30
2018-10-07T19:33:34.276Z,67.30
2018-10-07T19:36:02.823Z,67.40
2018-10-07T19:38:31.694Z,68.00
2018-10-07T19:41:00.177Z,68.20
2018-10-07T19:43:28.497Z,68.40
2018-10-07T19:45:56.832Z,68.90
2018-10-07T19:48:25.111Z,69.80
2018-10-07T19:50:53.389Z,70.00
2018-10-07T19:53:21.693Z,70.60
2018-10-07T19:55:50.663Z,70.20
2018-10-07T19:58:19.019Z,70.30
2018-10-07T20:00:47.284Z,70.40
2018-10-07T20:03:15.646Z,70.60
2018-10-07T20:05:44.684Z,70.90
2018-10-07T20:08:13.115Z,71.20
2018-10-07T20:10:41.374Z,71.90
2018-10-07T20:13:09.637Z,72.20
2018-10-07T20:15:38.281Z,72.50
2018-10-07T20:18:06.765Z,72.60
2018-10-07T20:20:35.242Z,72.90
2018-10-07T20:23:03.575Z,73.50
2018-10-07T20:25:31.854Z,73.80
2018-10-07T20:28:00.142Z,74.00
2018-10-07T20:30:28.602Z,74.30
2018-10-07T20:32:56.902Z,74.20
2018-10-07T20:35:25.154Z,73.60
2018-10-07T20:37:53.378Z,73.50
2018-10-07T20:40:22.212Z,74.30
2018-10-07T20:42:50.470Z,73.50
2018-10-07T20:45:18.741Z,73.50
2018-10-07T20:47:47.052Z,73.40
2018-10-07T20:50:15.292Z,73.00
2018-10-07T20:52:43.690Z,73.10
2018-10-07T20:55:11.908Z,73.00
2018-10-07T20:57:40.162Z,73.00
2018-10-07T21:00:08.945Z,73.70
2018-10-07T21:02:37.277Z,74.20
2018-10-07T21:05:05.583Z,74.20
2018-10-07T21:07:33.911Z,74.10
2018-10-07T21:10:02.154Z,74.30
2018-10-07T21:12:30.367Z,74.60
2018-10-07T21:14:58.875Z,75.90
2018-10-07T21:17:27.166Z,75.40
2018-10-07T21:19:55.596Z,75.90
2018-10-07T21:22:23.903Z,76.50
2018-10-07T21:24:52.182Z,77.30
2018-10-07T21:27:20.491Z,77.70
2018-10-07T21:29:48.799Z,77.90
2018-10-07T21:32:17.036Z,78.10
2018-10-07T21:34:45.286Z,78.80
2018-10-07T21:37:13.554Z,79.10
2018-10-07T21:39:41.745Z,80.00
2018-10-07T21:42:10.002Z,80.10
2018-10-07T21:44:38.171Z,80.00
2018-10-07T21:47:06.592Z,80.00
2018-10-07T21:49:35.043Z,80.20
2018-10-07T21:52:03.243Z,80.50
2018-10-07T21:54:31.743Z,80.60
2018-10-07T21:57:00.720Z,80.70
2018-10-07T21:59:28.898Z,81.20
2018-10-07T22:01:57.108Z,81.50
2018-10-07T22:04:25.336Z,82.00
2018-10-07T22:06:53.715Z,82.10
2018-10-07T22:09:22.000Z,81.90
2018-10-07T22:11:50.254Z,82.70
2018-10-07T22:14:18.482Z,83.30
2018-10-07T22:16:46.693Z,83.40
2018-10-07T22:19:15.029Z,84.00
2018-10-07T22:21:43.201Z,84.40
2018-10-07T22:24:11.409Z,83.80
2018-10-07T22:26:39.658Z,83.60
2018-10-07T22:29:08.505Z,83.60
2018-10-07T22:31:36.697Z,84.10
2018-10-07T22:34:04.903Z,84.10
2018-10-07T22:36:33.710Z,84.50
2018-10-07T22:39:01.915Z,84.70
2018-10-07T22:41:30.093Z,84.80
2018-10-07T22:43:58.297Z,84.20
2018-10-07T22:46:26.549Z,84.30
2018-10-07T22:48:54.737Z,84.40
2018-10-07T22:51:23.022Z,84.70
2018-10-07T22:53:51.377Z,84.60
2018-10-07T22:56:19.861Z,84.70
2018-10-07T22:58:48.031Z,84.40
2018-10-07T23:01:16.310Z,84.70
2018-10-07T23:03:44.672Z,85.40
2018-10-07T23:06:12.911Z,84.90
2018-10-07T23:08:41.261Z,84.70
2018-10-07T23:11:09.431Z,85.00
2018-10-07T23:13:37.655Z,85.40
2018-10-07T23:16:05.856Z,86.00
2018-10-07T23:18:34.235Z,85.90
2018-10-07T23:21:02.466Z,86.00
2018-10-07T23:23:30.698Z,86.10
2018-10-07T23:25:58.950Z,86.20
2018-10-07T23:28:27.809Z,86.60
2018-10-07T23:30:56.026Z,87.00
2018-10-07T23:33:24.203Z,86.90
2018-10-07T23:35:52.478Z,87.30
2018-10-07T23:38:20.723Z,87.40
2018-10-07T23:40:50.873Z,88.10
2018-10-07T23:43:19.073Z,88.20
2018-10-07T23:45:47.336Z,88.40
2018-10-07T23:48:15.555Z,88.70
2018-10-07T23:50:44.457Z,88.70
2018-10-07T23:53:13.583Z,88.80
2018-10-07T23:55:41.760Z,89.30
2018-10-07T23:58:10.114Z,89.90
